KFAY/FAY METAR and TAF weather

Enter ICAO airport designator
Station Type Date Time Source
KFAY METAR 2020/09/25 20:53 UTC NOAA

KFAY 252053Z 08004KT 8SM -RA BKN021 OVC027 21/20 A2999 RMK AO2 LTG DSNT E SLP149 P0013 60069 T02110200 56009


Station Type Date Time Source
KFAY Decoded METAR 2020/09/25 20:53 UTC NOAA

FAYETTEVILLE REGIONAL AIRPORT , NC, United States (KFAY) 34-59N 078-53W 55M
Sep 25, 2020 - 04:53 PM EDT / 2020.09.25 2053 UTC
Wind: from the E (080 degrees) at 5 MPH (4 KT):0
Visibility: 8 mile(s):0
Sky conditions: overcast
Weather: light rain; Lightning observed
Precipitation last hour: 0.13 inches
Temperature: 70.0 F (21.1 C)
Dew Point: 68.0 F (20.0 C)
Relative Humidity: 93%
Pressure (altimeter): 29.99 in. Hg (1015 hPa)
Pressure tendency: 0.03 inches (0.9 hPa) lower than three hours ago
ob: KFAY 252053Z 08004KT 8SM -RA BKN021 OVC027 21/20 A2999 RMK AO2 LTG DSNT E SLP149 P0013 60069 T02110200 56009
cycle: 21

Station Type Date Time Source
KFAY TAF 2020/09/25 21:42 UTC NOAA

TAF
AMD KFAY 252041Z 2521/2618 05006KT 4SM -SHRA BR VCTS SCT015CB OVC020
FM252300 04004KT 6SM BR VCSH FEW005 BKN015 OVC020
FM260300 VRB05KT 1 1/2SM BR VCSH OVC003
FM261300 05004KT 4SM BR BKN007

Example: see airport list